Time;durP1;ratioP1;P1;durP2;ratioP2;P2;SDS_P1;SDS_P2;PMS_P1;PMS_P2;Temp;Humidity;BMP_temperature;BMP_pressure;BME280_temperature;BME280_humidity;BME280_pressure;Samples;Min_cycle;Max_cycle;Signal;HPM_P1;HPM_P2
2024/01/11 00:00:15;;;;;;;13.02;7.63;;;;;;;;;;5054247;28;20368;-46
2024/01/11 00:02:41;;;;;;;13.30;7.78;;;;;;;;;;5052585;28;20497;-49
2024/01/11 00:05:07;;;;;;;12.65;7.38;;;;;;;;;;5053872;28;20021;-48
2024/01/11 00:07:33;;;;;;;12.45;7.22;;;;;;;;;;5053565;28;20032;-49
2024/01/11 00:09:59;;;;;;;12.60;7.30;;;;;;;;;;5053664;28;20033;-46
2024/01/11 00:12:25;;;;;;;13.50;9.07;;;;;;;;;;5053058;28;20023;-47
2024/01/11 00:14:51;;;;;;;12.00;7.00;;;;;;;;;;5071268;28;20055;-49
2024/01/11 00:17:17;;;;;;;13.13;7.70;;;;;;;;;;5071364;28;20020;-46
2024/01/11 00:19:43;;;;;;;12.45;7.25;;;;;;;;;;5071567;28;20453;-55
2024/01/11 00:22:09;;;;;;;12.52;7.32;;;;;;;;;;5070609;28;20116;-47
2024/01/11 00:24:37;;;;;;;13.00;9.38;;;;;;;;;;5071100;28;20028;-48
2024/01/11 00:27:03;;;;;;;;;;;;;;;;;;5071929;28;20107;-51
2024/01/11 00:29:29;;;;;;;11.48;6.70;;;;;;;;;;5053438;28;19952;-51
2024/01/11 00:31:55;;;;;;;12.20;7.15;;;;;;;;;;5052639;28;20060;-51
2024/01/11 00:34:21;;;;;;;12.23;7.13;;;;;;;;;;5051578;28;20502;-50
2024/01/11 00:36:48;;;;;;;12.32;7.15;;;;;;;;;;5059626;28;20035;-50
2024/01/11 00:39:13;;;;;;;12.82;7.82;;;;;;;;;;5071345;28;20473;-48
2024/01/11 00:44:07;;;;;;;12.30;7.13;;;;;;;;;;5130411;22;20398;-48
2024/01/11 00:46:33;;;;;;;12.48;7.28;;;;;;;;;;5111252;28;20016;-44
2024/01/11 00:48:59;;;;;;;12.90;7.47;;;;;;;;;;5093121;28;20477;-44
2024/01/11 00:51:25;;;;;;;13.18;7.75;;;;;;;;;;5110214;28;20099;-48
2024/01/11 00:53:51;;;;;;;12.98;7.63;;;;;;;;;;5102506;28;20103;-43
2024/01/11 00:56:20;;;;;;;12.57;7.30;;;;;;;;;;5093197;28;20020;-47
2024/01/11 00:58:46;;;;;;;12.15;7.05;;;;;;;;;;5089606;28;20027;-47
2024/01/11 01:01:12;;;;;;;12.10;7.03;;;;;;;;;;5090350;28;20044;-46
2024/01/11 01:03:38;;;;;;;12.80;7.40;;;;;;;;;;5091361;28;20020;-46
2024/01/11 01:06:05;;;;;;;13.05;7.63;;;;;;;;;;5090450;28;20032;-44
2024/01/11 01:08:31;;;;;;;13.27;7.72;;;;;;;;;;5090013;28;20069;-44
2024/01/11 01:10:56;;;;;;;13.18;7.70;;;;;;;;;;5090320;28;20020;-47
2024/01/11 01:13:22;;;;;;;12.80;7.40;;;;;;;;;;5097395;28;20512;-44
2024/01/11 01:15:48;;;;;;;12.82;7.43;;;;;;;;;;5103002;28;20028;-42
2024/01/11 01:18:15;;;;;;;12.40;7.18;;;;;;;;;;5109986;28;20047;-47
2024/01/11 01:20:41;;;;;;;12.35;7.18;;;;;;;;;;5091579;28;20068;-41
2024/01/11 01:23:07;;;;;;;12.23;7.18;;;;;;;;;;5098515;28;20028;-44
2024/01/11 01:25:33;;;;;;;12.63;7.50;;;;;;;;;;5106584;28;20034;-44
2024/01/11 01:28:00;;;;;;;13.10;8.30;;;;;;;;;;5091905;28;20434;-46
2024/01/11 01:30:26;;;;;;;12.85;7.57;;;;;;;;;;5097943;27;20106;-42
2024/01/11 01:32:52;;;;;;;12.63;7.32;;;;;;;;;;5094374;27;20028;-42
2024/01/11 01:35:18;;;;;;;12.68;7.38;;;;;;;;;;5090818;28;20406;-44
2024/01/11 01:37:44;;;;;;;13.05;7.57;;;;;;;;;;5089488;28;20024;-43
2024/01/11 01:40:11;;;;;;;12.38;7.15;;;;;;;;;;5090938;28;20579;-45
2024/01/11 01:42:41;;;;;;;12.45;7.25;;;;;;;;;;5089437;28;20067;-45
2024/01/11 01:45:07;;;;;;;12.93;7.63;;;;;;;;;;5090491;28;20103;-45
2024/01/11 01:47:33;;;;;;;12.82;7.53;;;;;;;;;;5090528;28;20016;-46
2024/01/11 01:49:59;;;;;;;12.48;7.30;;;;;;;;;;5090625;28;20023;-45
2024/01/11 01:52:25;;;;;;;12.60;7.85;;;;;;;;;;5089751;28;20371;-47
2024/01/11 01:54:52;;;;;;;12.30;7.13;;;;;;;;;;5090540;28;20035;-49
2024/01/11 01:57:19;;;;;;;12.63;7.40;;;;;;;;;;5089576;28;20027;-46
2024/01/11 01:59:45;;;;;;;12.13;7.03;;;;;;;;;;5089314;28;20050;-48
2024/01/11 02:02:12;;;;;;;12.00;7.00;;;;;;;;;;5089775;28;20277;-48
2024/01/11 02:04:38;;;;;;;12.55;7.30;;;;;;;;;;5090355;28;20500;-43
2024/01/11 02:07:05;;;;;;;12.88;7.43;;;;;;;;;;5090401;28;20024;-43
2024/01/11 02:09:31;;;;;;;12.45;7.18;;;;;;;;;;5090515;28;20024;-45
2024/01/11 02:11:57;;;;;;;12.60;7.30;;;;;;;;;;5089536;28;20381;-41
2024/01/11 02:14:23;;;;;;;12.40;7.20;;;;;;;;;;5090329;28;20082;-42
2024/01/11 02:16:49;;;;;;;12.55;7.30;;;;;;;;;;5093777;28;20016;-44
2024/01/11 02:19:16;;;;;;;12.20;7.07;;;;;;;;;;5097250;28;20024;-42
2024/01/11 02:21:43;;;;;;;12.32;7.20;;;;;;;;;;5096281;28;20371;-44
2024/01/11 02:24:10;;;;;;;12.55;7.28;;;;;;;;;;5096911;28;20031;-43
2024/01/11 02:26:38;;;;;;;12.32;7.20;;;;;;;;;;5095652;28;20028;-45
2024/01/11 02:29:04;;;;;;;12.38;7.40;;;;;;;;;;5096571;28;20574;-42
2024/01/11 02:31:31;;;;;;;12.70;7.40;;;;;;;;;;5096140;28;20016;-48
2024/01/11 02:33:57;;;;;;;12.52;7.30;;;;;;;;;;5096807;28;20016;-46
2024/01/11 02:36:23;;;;;;;12.70;7.40;;;;;;;;;;5105913;28;20138;-43
2024/01/11 02:38:49;;;;;;;12.70;7.40;;;;;;;;;;5097948;28;20382;-41
2024/01/11 02:41:17;;;;;;;12.88;7.45;;;;;;;;;;5098209;28;20493;-48
2024/01/11 02:43:49;;;;;;;12.90;7.50;;;;;;;;;;5099682;28;20406;-48
2024/01/11 02:46:15;;;;;;;12.57;7.30;;;;;;;;;;5096752;28;20036;-49
2024/01/11 02:48:42;;;;;;;12.50;7.30;;;;;;;;;;5096808;28;20024;-46
2024/01/11 02:51:07;;;;;;;12.80;7.80;;;;;;;;;;5104288;28;20012;-41
2024/01/11 02:53:34;;;;;;;12.32;7.18;;;;;;;;;;5096676;28;20018;-49
2024/01/11 02:56:01;;;;;;;12.55;7.25;;;;;;;;;;5096487;28;20478;-43
2024/01/11 02:58:27;;;;;;;12.73;7.40;;;;;;;;;;5095553;28;20099;-47
2024/01/11 03:00:53;;;;;;;12.65;7.30;;;;;;;;;;5095996;28;20115;-47
2024/01/11 03:03:19;;;;;;;12.65;7.30;;;;;;;;;;5096552;28;20024;-45
2024/01/11 03:05:44;;;;;;;12.35;7.18;;;;;;;;;;5097266;28;20024;-43
2024/01/11 03:08:10;;;;;;;12.45;7.22;;;;;;;;;;5096841;28;20020;-46
2024/01/11 03:10:40;;;;;;;12.90;7.50;;;;;;;;;;5096834;28;20119;-44
2024/01/11 03:13:06;;;;;;;12.80;7.40;;;;;;;;;;5096316;28;20485;-47
2024/01/11 03:15:32;;;;;;;13.00;7.50;;;;;;;;;;5096720;28;20063;-46
2024/01/11 03:17:58;;;;;;;12.55;7.32;;;;;;;;;;5095414;28;20086;-44
2024/01/11 03:20:24;;;;;;;12.30;7.15;;;;;;;;;;5095536;28;20012;-46
2024/01/11 03:22:53;;;;;;;12.98;7.50;;;;;;;;;;5104649;28;20470;-44
2024/01/11 03:25:19;;;;;;;12.75;7.35;;;;;;;;;;5096846;28;20457;-40
2024/01/11 03:27:45;;;;;;;12.80;7.40;;;;;;;;;;5095339;28;20020;-44
2024/01/11 03:30:12;;;;;;;12.05;7.20;;;;;;;;;;5093971;28;20031;-46
2024/01/11 03:32:41;;;;;;;12.40;7.20;;;;;;;;;;5091834;28;20085;-44
2024/01/11 03:35:10;;;;;;;13.15;8.18;;;;;;;;;;5093921;28;20024;-43
2024/01/11 03:37:36;;;;;;;12.60;7.30;;;;;;;;;;5092950;28;20077;-43
2024/01/11 03:40:04;;;;;;;12.30;7.25;;;;;;;;;;5094363;28;20104;-44
2024/01/11 03:42:30;;;;;;;12.45;7.22;;;;;;;;;;5101288;28;20384;-42
2024/01/11 03:44:56;;;;;;;12.32;7.20;;;;;;;;;;5096375;28;20390;-42
2024/01/11 03:47:22;;;;;;;12.95;7.47;;;;;;;;;;5095323;28;20022;-43
2024/01/11 03:49:48;;;;;;;12.55;7.30;;;;;;;;;;5095093;28;20024;-43
2024/01/11 03:52:14;;;;;;;28.60;11.30;;;;;;;;;;5092665;28;20050;-43
2024/01/11 03:54:40;;;;;;;14.23;12.48;;;;;;;;;;5093047;28;20023;-44
2024/01/11 03:57:06;;;;;;;14.00;9.57;;;;;;;;;;5091534;28;20382;-44
2024/01/11 03:59:32;;;;;;;12.98;8.52;;;;;;;;;;5092582;28;20040;-44
2024/01/11 04:01:59;;;;;;;12.63;7.30;;;;;;;;;;5092372;28;20013;-43
2024/01/11 04:04:25;;;;;;;12.82;7.47;;;;;;;;;;5092768;28;20111;-45
2024/01/11 04:06:54;;;;;;;12.75;7.38;;;;;;;;;;5092720;28;20052;-46
2024/01/11 04:09:20;;;;;;;12.30;7.18;;;;;;;;;;5091166;28;20020;-45
2024/01/11 04:11:46;;;;;;;12.65;8.02;;;;;;;;;;5092866;28;20016;-46
2024/01/11 04:14:13;;;;;;;13.90;10.70;;;;;;;;;;5093695;28;20086;-40
2024/01/11 04:16:42;;;;;;;12.90;7.90;;;;;;;;;;5093967;28;20102;-43
2024/01/11 04:19:08;;;;;;;12.80;7.93;;;;;;;;;;5093552;28;20020;-45
2024/01/11 04:21:34;;;;;;;12.60;7.40;;;;;;;;;;5092866;28;20024;-42
2024/01/11 04:24:00;;;;;;;12.45;7.25;;;;;;;;;;5092658;28;20023;-43
2024/01/11 04:26:26;;;;;;;12.63;7.30;;;;;;;;;;5092462;28;20020;-40
2024/01/11 04:28:53;;;;;;;11.95;7.00;;;;;;;;;;5093792;28;20026;-43
2024/01/11 04:31:19;;;;;;;12.15;7.05;;;;;;;;;;5091476;28;20091;-42
2024/01/11 04:33:45;;;;;;;12.40;7.20;;;;;;;;;;5091528;28;20016;-45
2024/01/11 04:36:12;;;;;;;17.88;16.23;;;;;;;;;;5093256;28;20022;-47
2024/01/11 04:38:38;;;;;;;12.30;7.13;;;;;;;;;;5093465;28;20034;-46
2024/01/11 04:41:13;;;;;;;12.00;7.00;;;;;;;;;;5091959;28;20012;-44
2024/01/11 04:43:40;;;;;;;12.30;7.18;;;;;;;;;;5093090;28;20028;-41
2024/01/11 04:46:15;;;;;;;12.90;7.47;;;;;;;;;;5091844;28;20027;-47
2024/01/11 04:48:41;;;;;;;12.50;7.25;;;;;;;;;;5091614;28;20091;-44
2024/01/11 04:51:07;;;;;;;12.32;7.15;;;;;;;;;;5091163;28;20119;-44
2024/01/11 04:53:33;;;;;;;13.18;7.75;;;;;;;;;;5091681;28;20471;-44
2024/01/11 04:55:59;;;;;;;12.27;7.43;;;;;;;;;;5091736;28;20119;-44
2024/01/11 04:58:25;;;;;;;11.85;6.90;;;;;;;;;;5091699;28;20240;-46
2024/01/11 05:00:51;;;;;;;12.35;7.22;;;;;;;;;;5091476;28;20031;-42
2024/01/11 05:03:17;;;;;;;12.30;7.15;;;;;;;;;;5090992;28;20041;-47
2024/01/11 05:05:43;;;;;;;12.65;7.35;;;;;;;;;;5092674;28;20055;-48
2024/01/11 05:08:09;;;;;;;13.07;7.60;;;;;;;;;;5091655;28;20031;-47
2024/01/11 05:10:36;;;;;;;12.80;7.40;;;;;;;;;;5091230;28;20412;-44
2024/01/11 05:13:02;;;;;;;12.80;7.45;;;;;;;;;;5090673;28;20039;-40
2024/01/11 05:15:28;;;;;;;13.10;7.60;;;;;;;;;;5091447;28;20024;-41
2024/01/11 05:17:58;;;;;;;12.68;7.35;;;;;;;;;;5091370;28;20024;-42
2024/01/11 05:20:24;;;;;;;12.70;7.40;;;;;;;;;;5091390;28;20024;-43
2024/01/11 05:22:50;;;;;;;12.70;7.40;;;;;;;;;;5090774;28;20020;-41
2024/01/11 05:25:16;;;;;;;13.30;7.80;;;;;;;;;;5089975;28;20031;-43
2024/01/11 05:27:42;;;;;;;12.68;7.38;;;;;;;;;;5091332;28;20449;-45
2024/01/11 05:30:09;;;;;;;12.68;7.38;;;;;;;;;;5103187;28;20027;-44
2024/01/11 05:32:35;;;;;;;12.75;7.40;;;;;;;;;;5110504;28;20099;-44
2024/01/11 05:35:01;;;;;;;12.73;7.38;;;;;;;;;;5110852;28;20107;-45
2024/01/11 05:37:27;;;;;;;12.55;7.25;;;;;;;;;;5111134;28;20012;-45
2024/01/11 05:39:54;;;;;;;13.23;7.70;;;;;;;;;;5111049;28;20481;-46
2024/01/11 05:42:20;;;;;;;12.93;7.50;;;;;;;;;;5110392;28;20019;-46
2024/01/11 05:44:46;;;;;;;12.95;7.55;;;;;;;;;;5092538;28;20389;-45
2024/01/11 05:47:12;;;;;;;14.48;9.40;;;;;;;;;;5111279;28;20027;-45
2024/01/11 05:49:38;;;;;;;12.68;7.38;;;;;;;;;;5111047;28;20027;-45
2024/01/11 05:52:04;;;;;;;13.32;7.90;;;;;;;;;;5109791;28;20491;-48
2024/01/11 05:54:30;;;;;;;12.88;7.47;;;;;;;;;;5110696;28;20027;-45
2024/01/11 05:56:57;;;;;;;12.90;7.53;;;;;;;;;;5110864;28;20042;-45
2024/01/11 05:59:24;;;;;;;13.40;8.77;;;;;;;;;;5110960;28;20031;-42
2024/01/11 06:01:49;;;;;;;12.35;7.20;;;;;;;;;;5110346;28;20400;-43
2024/01/11 06:04:16;;;;;;;12.25;7.15;;;;;;;;;;5093115;28;20023;-44
2024/01/11 06:06:42;;;;;;;12.48;7.30;;;;;;;;;;5112337;28;20024;-43
2024/01/11 06:09:09;;;;;;;12.80;7.45;;;;;;;;;;5112058;28;20024;-45
2024/01/11 06:11:35;;;;;;;13.02;7.60;;;;;;;;;;5111662;28;20027;-44
2024/01/11 06:14:02;;;;;;;18.23;16.35;;;;;;;;;;5111140;28;20031;-44
2024/01/11 06:16:28;;;;;;;12.80;7.50;;;;;;;;;;5110874;28;20090;-45
2024/01/11 06:18:54;;;;;;;12.50;8.00;;;;;;;;;;5110612;28;20115;-48
2024/01/11 06:21:20;;;;;;;12.27;7.10;;;;;;;;;;5109510;28;20045;-47
2024/01/11 06:23:46;;;;;;;12.68;7.43;;;;;;;;;;5094784;28;20074;-45
2024/01/11 06:26:12;;;;;;;13.13;7.65;;;;;;;;;;5092927;28;20389;-50
2024/01/11 06:28:38;;;;;;;12.73;7.40;;;;;;;;;;5091331;28;20032;-43
2024/01/11 06:31:04;;;;;;;13.07;7.70;;;;;;;;;;5088698;28;20036;-48
2024/01/11 06:33:32;;;;;;;12.82;7.47;;;;;;;;;;5090335;28;20477;-45
2024/01/11 06:35:58;;;;;;;13.10;7.70;;;;;;;;;;5090153;28;20109;-45
2024/01/11 06:38:24;;;;;;;13.13;7.70;;;;;;;;;;5090361;28;20135;-42
2024/01/11 06:40:50;;;;;;;12.75;7.57;;;;;;;;;;5089640;28;20081;-44
2024/01/11 06:43:16;;;;;;;12.70;7.43;;;;;;;;;;5095421;22;20045;-58
2024/01/11 06:45:45;;;;;;;19.52;14.70;;;;;;;;;;5068076;28;20047;-61
2024/01/11 06:48:11;;;;;;;13.13;7.63;;;;;;;;;;5068116;28;20669;-61
2024/01/11 06:50:37;;;;;;;12.43;7.40;;;;;;;;;;5068181;28;20036;-61
2024/01/11 06:53:03;;;;;;;12.90;7.60;;;;;;;;;;5074863;28;20032;-62
2024/01/11 06:55:29;;;;;;;12.50;7.30;;;;;;;;;;5088192;28;20024;-63
2024/01/11 06:57:55;;;;;;;12.38;7.20;;;;;;;;;;5088082;28;20389;-59
2024/01/11 07:00:21;;;;;;;12.95;7.82;;;;;;;;;;5069838;28;20028;-60
2024/01/11 07:02:47;;;;;;;12.68;7.40;;;;;;;;;;5087336;28;20016;-61
2024/01/11 07:05:13;;;;;;;12.40;7.22;;;;;;;;;;5073811;28;20566;-62
2024/01/11 07:07:39;;;;;;;13.05;7.57;;;;;;;;;;5092508;28;20024;-60
2024/01/11 07:10:06;;;;;;;11.93;7.00;;;;;;;;;;5091825;28;20427;-62
2024/01/11 07:12:33;;;;;;;12.45;7.25;;;;;;;;;;5075784;28;20375;-62
2024/01/11 07:14:59;;;;;;;12.65;7.32;;;;;;;;;;5072107;28;20060;-61
2024/01/11 07:17:25;;;;;;;12.43;7.20;;;;;;;;;;5091755;28;20522;-61
2024/01/11 07:19:51;;;;;;;12.90;7.90;;;;;;;;;;5073343;28;20016;-61
2024/01/11 07:22:17;;;;;;;12.30;7.20;;;;;;;;;;5090821;28;20396;-62
2024/01/11 07:24:43;;;;;;;12.48;7.32;;;;;;;;;;5073428;28;20012;-61
2024/01/11 07:27:09;;;;;;;12.40;7.18;;;;;;;;;;5091741;28;20073;-63
2024/01/11 07:29:35;;;;;;;12.27;7.22;;;;;;;;;;5091640;28;20039;-62
2024/01/11 07:32:03;;;;;;;12.50;7.30;;;;;;;;;;5090997;28;20440;-62
2024/01/11 07:34:29;;;;;;;12.10;7.03;;;;;;;;;;5076826;28;20151;-61
2024/01/11 07:36:56;;;;;;;12.30;7.20;;;;;;;;;;5088449;28;20036;-62
2024/01/11 07:39:22;;;;;;;12.60;7.40;;;;;;;;;;5079702;28;20500;-60
2024/01/11 07:41:48;;;;;;;12.95;7.60;;;;;;;;;;5070518;28;20113;-61
2024/01/11 07:44:14;;;;;;;12.85;7.50;;;;;;;;;;5083687;28;20032;-61
2024/01/11 07:46:40;;;;;;;12.93;7.45;;;;;;;;;;5091849;28;20024;-59
2024/01/11 07:49:07;;;;;;;12.93;7.50;;;;;;;;;;5073399;28;20108;-61
2024/01/11 07:51:37;;;;;;;12.85;7.50;;;;;;;;;;5090306;28;20075;-61
2024/01/11 07:54:03;;;;;;;13.48;8.35;;;;;;;;;;5090590;28;20024;-62
2024/01/11 07:56:29;;;;;;;13.88;9.25;;;;;;;;;;5085492;28;20035;-61
2024/01/11 07:58:55;;;;;;;12.70;7.40;;;;;;;;;;5088902;28;20020;-61
2024/01/11 08:01:21;;;;;;;13.00;7.57;;;;;;;;;;5074580;28;20090;-60
2024/01/11 08:03:47;;;;;;;12.45;7.30;;;;;;;;;;5084802;28;20051;-61
2024/01/11 08:06:14;;;;;;;12.05;7.00;;;;;;;;;;5090570;28;20107;-61
2024/01/11 08:08:40;;;;;;;12.18;7.13;;;;;;;;;;5072272;28;20047;-62
2024/01/11 08:11:09;;;;;;;12.70;7.38;;;;;;;;;;5089560;28;20024;-61
2024/01/11 08:13:37;;;;;;;13.30;7.80;;;;;;;;;;5065288;28;20092;-60
2024/01/11 08:16:04;;;;;;;13.38;8.32;;;;;;;;;;5090366;28;20024;-60
2024/01/11 08:18:30;;;;;;;12.10;7.03;;;;;;;;;;5090381;28;20020;-60
2024/01/11 08:20:57;;;;;;;12.40;7.38;;;;;;;;;;5081153;28;20081;-59
2024/01/11 08:23:23;;;;;;;12.40;7.20;;;;;;;;;;5090014;28;20016;-58
2024/01/11 08:25:49;;;;;;;12.80;7.45;;;;;;;;;;5090152;28;20023;-61
2024/01/11 08:28:15;;;;;;;12.55;7.25;;;;;;;;;;5090344;28;20091;-60
2024/01/11 08:30:42;;;;;;;11.73;6.80;;;;;;;;;;5083878;28;20162;-59
2024/01/11 08:33:08;;;;;;;12.50;7.40;;;;;;;;;;5089446;28;20027;-60
2024/01/11 08:35:35;;;;;;;12.05;7.00;;;;;;;;;;5089926;28;20024;-60
2024/01/11 08:38:02;;;;;;;12.70;7.35;;;;;;;;;;5071684;28;20024;-61
2024/01/11 08:40:28;;;;;;;12.52;7.28;;;;;;;;;;5089838;28;20081;-62
2024/01/11 08:42:55;;;;;;;12.20;7.10;;;;;;;;;;5089138;28;20032;-62
2024/01/11 08:45:22;;;;;;;12.18;7.10;;;;;;;;;;5071650;28;20043;-56
2024/01/11 08:47:48;;;;;;;12.60;7.50;;;;;;;;;;5089971;28;20016;-59
2024/01/11 08:50:15;;;;;;;12.20;7.10;;;;;;;;;;5089855;28;20093;-55
2024/01/11 08:52:41;;;;;;;36.72;22.40;;;;;;;;;;5089150;28;20486;-49
2024/01/11 08:55:08;;;;;;;12.02;7.00;;;;;;;;;;5089676;28;20165;-49
2024/01/11 08:57:35;;;;;;;12.20;7.10;;;;;;;;;;5071836;28;20024;-49
2024/01/11 09:00:02;;;;;;;13.00;7.60;;;;;;;;;;5089859;28;20079;-53
2024/01/11 09:02:28;;;;;;;13.00;8.13;;;;;;;;;;5070638;28;20028;-54
2024/01/11 09:04:54;;;;;;;13.68;8.00;;;;;;;;;;5089266;28;20038;-50
2024/01/11 09:07:20;;;;;;;13.00;8.23;;;;;;;;;;5089800;28;20104;-54
2024/01/11 09:09:46;;;;;;;12.90;7.53;;;;;;;;;;5071363;28;20012;-51
2024/01/11 09:12:12;;;;;;;12.88;7.50;;;;;;;;;;5088813;28;20031;-51
2024/01/11 09:14:39;;;;;;;13.27;7.90;;;;;;;;;;5071225;28;20438;-52
2024/01/11 09:17:06;;;;;;;12.98;7.60;;;;;;;;;;5089329;28;20042;-57
2024/01/11 09:19:37;;;;;;;13.15;7.70;;;;;;;;;;5089529;28;20028;-57
2024/01/11 09:22:03;;;;;;;13.50;8.50;;;;;;;;;;5088366;28;20032;-52
2024/01/11 09:24:29;;;;;;;12.82;8.07;;;;;;;;;;5088402;28;20032;-51
2024/01/11 09:26:55;;;;;;;14.77;8.93;;;;;;;;;;5078168;28;20019;-55
2024/01/11 09:29:21;;;;;;;13.30;8.30;;;;;;;;;;5082272;28;20028;-56
2024/01/11 09:31:47;;;;;;;11.95;7.00;;;;;;;;;;5086060;28;20080;-55
2024/01/11 09:34:13;;;;;;;12.82;7.45;;;;;;;;;;5088527;28;20160;-56
2024/01/11 09:36:39;;;;;;;12.43;7.25;;;;;;;;;;5073017;28;20056;-53
2024/01/11 09:39:05;;;;;;;13.23;8.10;;;;;;;;;;5084963;28;20033;-54
2024/01/11 09:41:32;;;;;;;13.00;7.68;;;;;;;;;;5076230;28;20035;-53
2024/01/11 09:44:01;;;;;;;12.85;7.53;;;;;;;;;;5078510;28;20105;-53
2024/01/11 09:46:28;;;;;;;13.25;7.75;;;;;;;;;;5088683;28;20045;-53
2024/01/11 09:48:54;;;;;;;42.33;38.30;;;;;;;;;;5088253;28;20024;-54
2024/01/11 09:51:20;;;;;;;13.18;7.80;;;;;;;;;;5087948;28;20492;-55
2024/01/11 09:53:47;;;;;;;13.05;7.70;;;;;;;;;;5088523;28;20024;-55
2024/01/11 09:56:13;;;;;;;13.02;7.60;;;;;;;;;;5088397;28;20056;-53
2024/01/11 09:58:42;;;;;;;12.88;7.55;;;;;;;;;;5088240;28;20093;-55
2024/01/11 10:01:12;;;;;;;13.45;8.20;;;;;;;;;;5087804;28;20379;-55
2024/01/11 10:03:39;;;;;;;14.10;9.65;;;;;;;;;;5070259;28;20043;-53
2024/01/11 10:06:07;;;;;;;13.38;8.25;;;;;;;;;;5088516;28;20043;-55
2024/01/11 10:08:33;;;;;;;13.48;8.25;;;;;;;;;;5088728;28;20081;-51
2024/01/11 10:10:59;;;;;;;13.40;8.10;;;;;;;;;;5070195;28;20150;-53
2024/01/11 10:13:29;;;;;;;13.23;7.90;;;;;;;;;;5089164;28;20053;-52
2024/01/11 10:16:05;;;;;;;26.95;19.15;;;;;;;;;;5088824;28;20508;-55
2024/01/11 10:18:31;;;;;;;13.00;7.75;;;;;;;;;;5088690;28;20020;-55
2024/01/11 10:20:57;;;;;;;13.23;8.00;;;;;;;;;;5069549;28;20372;-54
2024/01/11 10:23:23;;;;;;;12.95;7.57;;;;;;;;;;5068225;28;20402;-54
2024/01/11 10:25:50;;;;;;;13.23;7.72;;;;;;;;;;5068015;28;20027;-55
2024/01/11 10:28:18;;;;;;;14.63;11.77;;;;;;;;;;5080931;28;20384;-57
2024/01/11 10:30:46;;;;;;;13.70;8.90;;;;;;;;;;5088100;28;20016;-57
2024/01/11 10:33:12;;;;;;;15.98;10.38;;;;;;;;;;5069134;28;20077;-53
2024/01/11 10:35:38;;;;;;;13.18;7.82;;;;;;;;;;5069750;28;20377;-54
2024/01/11 10:38:06;;;;;;;12.82;7.57;;;;;;;;;;5090904;28;20020;-55
2024/01/11 10:40:32;;;;;;;13.90;8.85;;;;;;;;;;5091975;28;20063;-50
2024/01/11 10:43:01;;;;;;;13.45;8.40;;;;;;;;;;5091688;28;20422;-56
2024/01/11 10:45:27;;;;;;;14.43;11.05;;;;;;;;;;5085320;28;20020;-58
2024/01/11 10:48:01;;;;;;;14.88;10.90;;;;;;;;;;5086749;28;20111;-55
2024/01/11 10:50:30;;;;;;;12.98;7.57;;;;;;;;;;5083504;28;20150;-56
2024/01/11 10:53:00;;;;;;;13.20;7.80;;;;;;;;;;5091193;28;20103;-56
2024/01/11 10:55:27;;;;;;;13.13;7.80;;;;;;;;;;5091625;28;20418;-53
2024/01/11 10:57:54;;;;;;;12.80;7.45;;;;;;;;;;5091501;28;20027;-55
2024/01/11 11:00:20;;;;;;;12.90;7.50;;;;;;;;;;5092098;28;20373;-54
2024/01/11 11:02:46;;;;;;;18.30;13.93;;;;;;;;;;5090890;28;20035;-57
2024/01/11 11:05:14;;;;;;;13.07;7.70;;;;;;;;;;5091760;28;20020;-56
2024/01/11 11:07:40;;;;;;;13.15;7.78;;;;;;;;;;5091607;28;20031;-55
2024/01/11 11:10:06;;;;;;;13.05;7.72;;;;;;;;;;5091487;28;20050;-57
2024/01/11 11:12:34;;;;;;;12.82;7.45;;;;;;;;;;5090491;28;20016;-54
2024/01/11 11:15:02;;;;;;;12.75;7.40;;;;;;;;;;5080838;28;20028;-53
2024/01/11 11:17:28;;;;;;;13.43;8.13;;;;;;;;;;5071435;28;20021;-51
2024/01/11 11:19:54;;;;;;;13.50;8.30;;;;;;;;;;5071278;28;20055;-54
2024/01/11 11:22:20;;;;;;;13.30;8.07;;;;;;;;;;5070899;28;20117;-55
2024/01/11 11:24:46;;;;;;;13.38;8.00;;;;;;;;;;5071690;28;20036;-55
2024/01/11 11:27:16;;;;;;;13.13;7.97;;;;;;;;;;5053393;28;20039;-52
2024/01/11 11:29:48;;;;;;;13.48;8.50;;;;;;;;;;5053626;28;20561;-54
2024/01/11 11:32:17;;;;;;;13.32;8.00;;;;;;;;;;5070580;28;20036;-54
2024/01/11 11:34:44;;;;;;;13.40;8.40;;;;;;;;;;5071243;28;20035;-51
2024/01/11 11:37:10;;;;;;;13.27;7.88;;;;;;;;;;5071501;28;20028;-55
2024/01/11 11:39:36;;;;;;;12.95;7.47;;;;;;;;;;5071418;28;20107;-52
2024/01/11 11:42:03;;;;;;;13.30;7.80;;;;;;;;;;5070303;28;20016;-55
2024/01/11 11:44:29;;;;;;;13.07;7.75;;;;;;;;;;5052943;28;20032;-53
2024/01/11 11:46:55;;;;;;;18.50;8.40;;;;;;;;;;5070251;28;20025;-57
2024/01/11 11:49:21;;;;;;;13.20;7.70;;;;;;;;;;5052424;28;20028;-52
2024/01/11 11:51:48;;;;;;;12.98;7.57;;;;;;;;;;5070019;28;20056;-53
2024/01/11 11:54:14;;;;;;;13.45;8.20;;;;;;;;;;5070787;28;20099;-51
2024/01/11 11:56:41;;;;;;;12.68;7.32;;;;;;;;;;5070801;28;20542;-52
2024/01/11 11:59:08;;;;;;;13.13;7.70;;;;;;;;;;5070739;28;20056;-56
2024/01/11 12:01:35;;;;;;;12.80;7.40;;;;;;;;;;5070178;28;20553;-54
2024/01/11 12:04:02;;;;;;;14.40;10.25;;;;;;;;;;5069164;28;20032;-54
2024/01/11 12:06:29;;;;;;;13.18;7.80;;;;;;;;;;5070676;28;20021;-53
2024/01/11 12:08:55;;;;;;;12.38;7.20;;;;;;;;;;5070416;28;20044;-52
2024/01/11 12:11:22;;;;;;;13.13;7.70;;;;;;;;;;5069956;28;20090;-53
2024/01/11 12:13:49;;;;;;;12.80;7.43;;;;;;;;;;5070323;28;20016;-50
2024/01/11 12:16:15;;;;;;;12.82;7.43;;;;;;;;;;5070353;28;20394;-54
2024/01/11 12:18:41;;;;;;;12.60;8.20;;;;;;;;;;5070320;28;20048;-54
2024/01/11 12:21:08;;;;;;;13.02;8.00;;;;;;;;;;5070057;28;20101;-55
2024/01/11 12:23:35;;;;;;;12.32;7.20;;;;;;;;;;5070344;28;20020;-55
2024/01/11 12:26:05;;;;;;;12.20;7.10;;;;;;;;;;5070183;28;20111;-52
2024/01/11 12:28:32;;;;;;;12.63;7.70;;;;;;;;;;5070464;28;20056;-52
2024/01/11 12:30:58;;;;;;;11.93;6.93;;;;;;;;;;5069454;28;20037;-50
2024/01/11 12:33:25;;;;;;;12.10;7.03;;;;;;;;;;5070279;28;20387;-54
2024/01/11 12:35:51;;;;;;;11.95;6.90;;;;;;;;;;5068669;28;20517;-50
2024/01/11 12:38:17;;;;;;;12.80;8.02;;;;;;;;;;5069840;28;20012;-51
2024/01/11 12:40:43;;;;;;;12.10;7.30;;;;;;;;;;5068652;28;20016;-53
2024/01/11 12:43:11;;;;;;;12.38;7.15;;;;;;;;;;5069702;28;20024;-55
2024/01/11 12:45:38;;;;;;;12.07;7.03;;;;;;;;;;5069649;28;20029;-52
2024/01/11 12:48:07;;;;;;;12.15;7.03;;;;;;;;;;5069718;28;20048;-54
2024/01/11 12:50:33;;;;;;;11.30;6.60;;;;;;;;;;5068449;28;20403;-54
2024/01/11 12:53:07;;;;;;;11.63;6.82;;;;;;;;;;5069290;28;20028;-55
2024/01/11 12:55:34;;;;;;;12.70;8.50;;;;;;;;;;5068222;28;20438;-55
2024/01/11 12:58:09;;;;;;;13.95;8.15;;;;;;;;;;5069854;28;20012;-54
2024/01/11 13:00:36;;;;;;;11.50;6.70;;;;;;;;;;5068972;28;20028;-53
2024/01/11 13:03:03;;;;;;;11.43;6.65;;;;;;;;;;5068992;28;20059;-50
2024/01/11 13:05:34;;;;;;;11.30;6.60;;;;;;;;;;5070043;28;20048;-52
2024/01/11 13:08:01;;;;;;;11.50;6.97;;;;;;;;;;5069850;28;20025;-56
2024/01/11 13:10:27;;;;;;;32.35;11.32;;;;;;;;;;5069786;28;20082;-54
2024/01/11 13:12:55;;;;;;;12.00;6.90;;;;;;;;;;5069236;28;20051;-52
2024/01/11 13:15:21;;;;;;;11.98;6.95;;;;;;;;;;5074449;28;20020;-56
2024/01/11 13:17:48;;;;;;;12.55;7.22;;;;;;;;;;5076985;28;20020;-55
2024/01/11 13:20:15;;;;;;;12.50;8.10;;;;;;;;;;5079612;28;20551;-56
2024/01/11 13:22:41;;;;;;;15.65;10.05;;;;;;;;;;5077589;28;20112;-57
2024/01/11 13:25:07;;;;;;;29.85;9.40;;;;;;;;;;5078127;28;20029;-52
2024/01/11 13:27:33;;;;;;;12.35;7.13;;;;;;;;;;5070025;28;20111;-54
2024/01/11 13:29:59;;;;;;;11.75;6.90;;;;;;;;;;5069951;28;20033;-54
2024/01/11 13:32:25;;;;;;;11.90;6.90;;;;;;;;;;5067505;28;20035;-51
2024/01/11 13:34:52;;;;;;;11.77;7.18;;;;;;;;;;5069341;28;20517;-56
2024/01/11 13:37:19;;;;;;;11.60;6.80;;;;;;;;;;5070015;28;20451;-57
2024/01/11 13:39:45;;;;;;;10.85;6.38;;;;;;;;;;5069795;28;20471;-55
2024/01/11 13:42:11;;;;;;;11.38;6.85;;;;;;;;;;5068738;28;20028;-52
2024/01/11 13:44:39;;;;;;;11.82;6.93;;;;;;;;;;5067664;28;20033;-57
2024/01/11 13:47:05;;;;;;;11.27;6.53;;;;;;;;;;5068245;28;20416;-51
2024/01/11 13:49:31;;;;;;;11.48;6.82;;;;;;;;;;5068936;28;20085;-54
2024/01/11 13:51:57;;;;;;;11.10;6.45;;;;;;;;;;5069527;28;20033;-56
2024/01/11 13:54:23;;;;;;;10.90;6.32;;;;;;;;;;5070275;28;20442;-51
2024/01/11 13:56:53;;;;;;;11.30;6.60;;;;;;;;;;5080030;28;20091;-56
2024/01/11 13:59:19;;;;;;;11.05;6.45;;;;;;;;;;5083549;28;20021;-50
2024/01/11 14:01:46;;;;;;;12.30;8.73;;;;;;;;;;5067932;28;20053;-54
2024/01/11 14:04:12;;;;;;;10.68;6.20;;;;;;;;;;5068596;28;20540;-53
2024/01/11 14:06:38;;;;;;;10.95;6.40;;;;;;;;;;5082523;28;20036;-55
2024/01/11 14:09:08;;;;;;;11.85;6.80;;;;;;;;;;5074135;28;20024;-53
2024/01/11 14:11:34;;;;;;;11.18;6.50;;;;;;;;;;5069474;28;20067;-54
2024/01/11 14:14:01;;;;;;;10.88;6.40;;;;;;;;;;5068298;28;20044;-51
2024/01/11 14:16:27;;;;;;;11.88;7.20;;;;;;;;;;5068340;28;20099;-65
2024/01/11 14:18:53;;;;;;;11.15;7.05;;;;;;;;;;5066644;28;20023;-59
2024/01/11 14:21:19;;;;;;;10.98;6.55;;;;;;;;;;5066060;28;20020;-51
2024/01/11 14:23:45;;;;;;;9.80;5.80;;;;;;;;;;5068187;28;20096;-52
2024/01/11 14:26:11;;;;;;;11.30;6.65;;;;;;;;;;5070937;28;20653;-51